青島 の空港の天気 - METARとTAF

青島流亭国際空港 ( ZSQD / TAO ) - 中国 山東省青島市
飛行場実況気象(Metar)
観測時間02/22 01:00 CST (02/21 17:00 UTC)
風向・風速東北東 2m/s
視程3000m
天気現象もや
なし
気温-1℃
湿度86%
気圧1026hPa
METARZSQD 211700Z 07002MPS 3000 BR NSC M01/M03 Q1026 BECMG TL1830 2000 BR
過去の天気等 Google飛行場航空写真 Wunderground天気予報

過去48時間のMETAR

飛行場予報(TAF)
発表時間: 2/21 23:09 CST (2/21 15:09 UTC)
予報対象時間: 22日2時 CST ~ 23日2時 CST
風向・風速北 3m/s
視程2000m
天気現象もや
なし
22日10時 CST ~ 22日11時 CST に徐々に
視程3500m
22日4時 CST ~ 22日10時 CST に一時的に
視程1200m
天気現象もや
TAF ZSQD 211509Z 2118/2218 36003MPS 2000 BR NSC TX12/2206Z TNM03/22Z
BECMG 2202/2203 3500
TEMPO 2120/2202 1200 BR